sensor_id;sensor_type;location;lat;lon;timestamp;temperature;humidity
41447;DHT22;27185;52.040;4.490;2022-10-16T00:01:27;16.90;97.50
41447;DHT22;27185;52.040;4.490;2022-10-16T00:04:13;16.90;97.40
41447;DHT22;27185;52.040;4.490;2022-10-16T00:06:59;16.90;97.60
41447;DHT22;27185;52.040;4.490;2022-10-16T00:09:45;16.90;97.60
41447;DHT22;27185;52.040;4.490;2022-10-16T00:12:31;16.90;97.50
41447;DHT22;27185;52.040;4.490;2022-10-16T00:15:17;16.90;97.40
41447;DHT22;27185;52.040;4.490;2022-10-16T00:18:04;16.90;97.30
41447;DHT22;27185;52.040;4.490;2022-10-16T00:20:50;16.90;97.30
41447;DHT22;27185;52.040;4.490;2022-10-16T00:23:36;17.00;97.50
41447;DHT22;27185;52.040;4.490;2022-10-16T00:26:22;16.90;97.40
41447;DHT22;27185;52.040;4.490;2022-10-16T00:29:08;16.90;97.20
41447;DHT22;27185;52.040;4.490;2022-10-16T00:31:54;17.00;97.10
41447;DHT22;27185;52.040;4.490;2022-10-16T00:34:39;16.90;96.60
41447;DHT22;27185;52.040;4.490;2022-10-16T00:37:25;17.00;97.00
41447;DHT22;27185;52.040;4.490;2022-10-16T00:40:11;17.00;97.10
41447;DHT22;27185;52.040;4.490;2022-10-16T00:42:56;17.00;96.90
41447;DHT22;27185;52.040;4.490;2022-10-16T00:45:42;17.10;97.30
41447;DHT22;27185;52.040;4.490;2022-10-16T00:48:27;17.10;97.30
41447;DHT22;27185;52.040;4.490;2022-10-16T00:51:14;17.10;97.10
41447;DHT22;27185;52.040;4.490;2022-10-16T00:54:01;17.10;97.40
41447;DHT22;27185;52.040;4.490;2022-10-16T00:56:47;17.00;97.30
41447;DHT22;27185;52.040;4.490;2022-10-16T00:59:41;17.10;97.40
41447;DHT22;27185;52.040;4.490;2022-10-16T01:02:27;17.00;97.20
41447;DHT22;27185;52.040;4.490;2022-10-16T01:05:13;17.00;97.90
41447;DHT22;27185;52.040;4.490;2022-10-16T01:08:08;17.10;97.60
41447;DHT22;27185;52.040;4.490;2022-10-16T01:11:06;17.00;97.50
41447;DHT22;27185;52.040;4.490;2022-10-16T01:13:59;17.00;97.80
41447;DHT22;27185;52.040;4.490;2022-10-16T01:17:11;16.90;97.90
41447;DHT22;27185;52.040;4.490;2022-10-16T01:23:04;16.90;98.20
41447;DHT22;27185;52.040;4.490;2022-10-16T01:29:16;16.60;98.80
41447;DHT22;27185;52.040;4.490;2022-10-16T01:32:56;16.60;99.20
41447;DHT22;27185;52.040;4.490;2022-10-16T01:35:31;16.50;99.40
41447;DHT22;27185;52.040;4.490;2022-10-16T01:41:33;16.40;99.70
41447;DHT22;27185;52.040;4.490;2022-10-16T01:44:22;16.30;99.90
41447;DHT22;27185;52.040;4.490;2022-10-16T01:47:12;16.20;99.90
41447;DHT22;27185;52.040;4.490;2022-10-16T01:49:58;16.20;99.90
41447;DHT22;27185;52.040;4.490;2022-10-16T01:52:47;16.10;99.90
41447;DHT22;27185;52.040;4.490;2022-10-16T01:55:37;16.10;99.90
41447;DHT22;27185;52.040;4.490;2022-10-16T01:58:25;16.10;99.90
41447;DHT22;27185;52.040;4.490;2022-10-16T02:01:13;16.00;99.90
41447;DHT22;27185;52.040;4.490;2022-10-16T02:04:07;16.00;99.90
41447;DHT22;27185;52.040;4.490;2022-10-16T02:06:53;16.00;99.90
41447;DHT22;27185;52.040;4.490;2022-10-16T02:09:40;16.00;99.90
41447;DHT22;27185;52.040;4.490;2022-10-16T02:12:28;16.00;99.90
41447;DHT22;27185;52.040;4.490;2022-10-16T02:15:15;16.00;99.90
41447;DHT22;27185;52.040;4.490;2022-10-16T02:18:02;16.00;99.90
41447;DHT22;27185;52.040;4.490;2022-10-16T02:20:51;16.00;99.90
41447;DHT22;27185;52.040;4.490;2022-10-16T02:26:52;16.00;99.90
41447;DHT22;27185;52.040;4.490;2022-10-16T02:29:42;16.00;99.90
41447;DHT22;27185;52.040;4.490;2022-10-16T02:32:37;16.00;99.90
41447;DHT22;27185;52.040;4.490;2022-10-16T02:35:25;16.00;99.90
41447;DHT22;27185;52.040;4.490;2022-10-16T02:38:13;16.00;99.90
41447;DHT22;27185;52.040;4.490;2022-10-16T02:40:59;16.00;99.90
41447;DHT22;27185;52.040;4.490;2022-10-16T02:43:45;16.00;99.90
41447;DHT22;27185;52.040;4.490;2022-10-16T02:46:30;16.00;99.90
41447;DHT22;27185;52.040;4.490;2022-10-16T02:49:16;16.00;99.90
41447;DHT22;27185;52.040;4.490;2022-10-16T02:52:02;16.00;99.90
41447;DHT22;27185;52.040;4.490;2022-10-16T02:54:47;15.90;99.90
41447;DHT22;27185;52.040;4.490;2022-10-16T02:57:33;15.90;99.90
41447;DHT22;27185;52.040;4.490;2022-10-16T03:00:19;15.90;99.90
41447;DHT22;27185;52.040;4.490;2022-10-16T03:03:04;15.90;99.90
41447;DHT22;27185;52.040;4.490;2022-10-16T03:05:50;15.90;99.90
41447;DHT22;27185;52.040;4.490;2022-10-16T03:08:35;15.80;99.90
41447;DHT22;27185;52.040;4.490;2022-10-16T03:11:21;15.80;99.90
41447;DHT22;27185;52.040;4.490;2022-10-16T03:14:07;15.80;99.90
41447;DHT22;27185;52.040;4.490;2022-10-16T03:16:52;15.80;99.90
41447;DHT22;27185;52.040;4.490;2022-10-16T03:19:38;15.80;99.90
41447;DHT22;27185;52.040;4.490;2022-10-16T03:22:24;15.70;99.90
41447;DHT22;27185;52.040;4.490;2022-10-16T03:25:09;15.80;99.90
41447;DHT22;27185;52.040;4.490;2022-10-16T03:27:55;15.80;99.90
41447;DHT22;27185;52.040;4.490;2022-10-16T03:30:40;15.90;99.90
41447;DHT22;27185;52.040;4.490;2022-10-16T03:33:26;15.90;99.90
41447;DHT22;27185;52.040;4.490;2022-10-16T03:36:11;15.90;99.90
41447;DHT22;27185;52.040;4.490;2022-10-16T03:38:57;15.90;99.90
41447;DHT22;27185;52.040;4.490;2022-10-16T03:41:42;15.90;99.90
41447;DHT22;27185;52.040;4.490;2022-10-16T03:44:28;15.90;99.90
41447;DHT22;27185;52.040;4.490;2022-10-16T03:47:13;16.00;99.90
41447;DHT22;27185;52.040;4.490;2022-10-16T03:49:59;16.00;99.90
41447;DHT22;27185;52.040;4.490;2022-10-16T03:52:45;16.10;99.90
41447;DHT22;27185;52.040;4.490;2022-10-16T03:55:30;16.10;99.90
41447;DHT22;27185;52.040;4.490;2022-10-16T03:58:16;16.20;99.90
41447;DHT22;27185;52.040;4.490;2022-10-16T04:01:02;16.20;99.90
41447;DHT22;27185;52.040;4.490;2022-10-16T04:03:47;16.20;99.90
41447;DHT22;27185;52.040;4.490;2022-10-16T04:06:33;16.20;99.90
41447;DHT22;27185;52.040;4.490;2022-10-16T04:09:18;16.10;99.90
41447;DHT22;27185;52.040;4.490;2022-10-16T04:12:04;16.10;99.90
41447;DHT22;27185;52.040;4.490;2022-10-16T04:14:49;16.10;99.90
41447;DHT22;27185;52.040;4.490;2022-10-16T04:17:35;16.10;99.90
41447;DHT22;27185;52.040;4.490;2022-10-16T04:20:21;16.10;99.90
41447;DHT22;27185;52.040;4.490;2022-10-16T04:23:06;16.10;99.90
41447;DHT22;27185;52.040;4.490;2022-10-16T04:25:52;16.10;99.90
41447;DHT22;27185;52.040;4.490;2022-10-16T04:28:37;16.10;99.90
41447;DHT22;27185;52.040;4.490;2022-10-16T04:31:23;16.10;99.90
41447;DHT22;27185;52.040;4.490;2022-10-16T04:34:08;16.10;99.90
41447;DHT22;27185;52.040;4.490;2022-10-16T04:36:54;16.10;99.90
41447;DHT22;27185;52.040;4.490;2022-10-16T04:39:39;16.10;99.90
41447;DHT22;27185;52.040;4.490;2022-10-16T04:42:25;16.10;99.90
41447;DHT22;27185;52.040;4.490;2022-10-16T04:45:11;16.00;99.90
41447;DHT22;27185;52.040;4.490;2022-10-16T04:47:57;16.00;99.90
41447;DHT22;27185;52.040;4.490;2022-10-16T04:50:43;16.00;99.90
41447;DHT22;27185;52.040;4.490;2022-10-16T04:53:28;16.00;99.90
41447;DHT22;27185;52.040;4.490;2022-10-16T04:56:14;16.00;99.90
41447;DHT22;27185;52.040;4.490;2022-10-16T04:59:00;16.00;99.90
41447;DHT22;27185;52.040;4.490;2022-10-16T05:01:46;16.00;99.90
41447;DHT22;27185;52.040;4.490;2022-10-16T05:04:32;16.00;99.90
41447;DHT22;27185;52.040;4.490;2022-10-16T05:07:17;16.00;99.90
41447;DHT22;27185;52.040;4.490;2022-10-16T05:10:03;16.00;99.90
41447;DHT22;27185;52.040;4.490;2022-10-16T05:12:49;16.00;99.90
41447;DHT22;27185;52.040;4.490;2022-10-16T05:15:35;15.90;99.90
41447;DHT22;27185;52.040;4.490;2022-10-16T05:18:20;15.80;99.90
41447;DHT22;27185;52.040;4.490;2022-10-16T05:21:06;15.80;99.90
41447;DHT22;27185;52.040;4.490;2022-10-16T05:23:53;15.60;99.90
41447;DHT22;27185;52.040;4.490;2022-10-16T05:26:39;15.60;99.90
41447;DHT22;27185;52.040;4.490;2022-10-16T05:29:25;15.50;99.90
41447;DHT22;27185;52.040;4.490;2022-10-16T05:32:10;15.50;99.90
41447;DHT22;27185;52.040;4.490;2022-10-16T05:34:56;15.40;99.90
41447;DHT22;27185;52.040;4.490;2022-10-16T05:37:42;15.40;99.90
41447;DHT22;27185;52.040;4.490;2022-10-16T05:40:27;15.30;99.90
41447;DHT22;27185;52.040;4.490;2022-10-16T05:43:13;15.30;99.90
41447;DHT22;27185;52.040;4.490;2022-10-16T05:46:03;15.30;99.90
41447;DHT22;27185;52.040;4.490;2022-10-16T05:48:52;15.20;99.90
41447;DHT22;27185;52.040;4.490;2022-10-16T05:51:38;15.20;99.90
41447;DHT22;27185;52.040;4.490;2022-10-16T05:54:24;15.20;99.90
41447;DHT22;27185;52.040;4.490;2022-10-16T05:57:09;15.20;99.90
41447;DHT22;27185;52.040;4.490;2022-10-16T05:59:55;15.10;99.90
41447;DHT22;27185;52.040;4.490;2022-10-16T06:02:40;15.10;99.90
41447;DHT22;27185;52.040;4.490;2022-10-16T06:05:26;15.10;99.90
41447;DHT22;27185;52.040;4.490;2022-10-16T06:08:11;15.10;99.90
41447;DHT22;27185;52.040;4.490;2022-10-16T06:11:02;15.10;99.90
41447;DHT22;27185;52.040;4.490;2022-10-16T06:13:52;15.10;99.90
41447;DHT22;27185;52.040;4.490;2022-10-16T06:16:38;15.10;99.90
41447;DHT22;27185;52.040;4.490;2022-10-16T06:19:24;15.10;99.90
41447;DHT22;27185;52.040;4.490;2022-10-16T06:22:10;15.10;99.90
41447;DHT22;27185;52.040;4.490;2022-10-16T06:24:55;15.10;99.90
41447;DHT22;27185;52.040;4.490;2022-10-16T06:27:41;15.10;99.90
41447;DHT22;27185;52.040;4.490;2022-10-16T06:30:27;15.10;99.90
41447;DHT22;27185;52.040;4.490;2022-10-16T06:33:13;15.20;99.90
41447;DHT22;27185;52.040;4.490;2022-10-16T06:36:13;15.10;99.90
41447;DHT22;27185;52.040;4.490;2022-10-16T06:38:59;15.20;99.90
41447;DHT22;27185;52.040;4.490;2022-10-16T06:41:45;15.20;99.90
41447;DHT22;27185;52.040;4.490;2022-10-16T06:44:30;15.20;99.90
41447;DHT22;27185;52.040;4.490;2022-10-16T06:47:16;15.20;99.90
41447;DHT22;27185;52.040;4.490;2022-10-16T06:50:01;15.20;99.90
41447;DHT22;27185;52.040;4.490;2022-10-16T06:52:48;15.30;99.90
41447;DHT22;27185;52.040;4.490;2022-10-16T06:55:34;15.20;99.90
41447;DHT22;27185;52.040;4.490;2022-10-16T06:58:20;15.20;99.90
41447;DHT22;27185;52.040;4.490;2022-10-16T07:01:06;15.20;99.90
41447;DHT22;27185;52.040;4.490;2022-10-16T07:03:52;15.20;99.90
41447;DHT22;27185;52.040;4.490;2022-10-16T07:06:38;15.20;99.90
41447;DHT22;27185;52.040;4.490;2022-10-16T07:09:24;15.20;99.90
41447;DHT22;27185;52.040;4.490;2022-10-16T07:12:09;15.20;99.90
41447;DHT22;27185;52.040;4.490;2022-10-16T07:14:55;15.10;99.90
41447;DHT22;27185;52.040;4.490;2022-10-16T07:17:41;15.10;99.90
41447;DHT22;27185;52.040;4.490;2022-10-16T07:20:27;15.10;99.90
41447;DHT22;27185;52.040;4.490;2022-10-16T07:23:12;15.10;99.90
41447;DHT22;27185;52.040;4.490;2022-10-16T07:25:58;15.10;99.90
41447;DHT22;27185;52.040;4.490;2022-10-16T07:28:44;15.10;99.90
41447;DHT22;27185;52.040;4.490;2022-10-16T07:31:29;15.10;99.90
41447;DHT22;27185;52.040;4.490;2022-10-16T07:34:16;15.10;99.90
41447;DHT22;27185;52.040;4.490;2022-10-16T07:37:02;15.20;99.90
41447;DHT22;27185;52.040;4.490;2022-10-16T07:39:48;15.20;99.90
41447;DHT22;27185;52.040;4.490;2022-10-16T07:42:33;15.20;99.90
41447;DHT22;27185;52.040;4.490;2022-10-16T07:45:19;15.30;99.90
41447;DHT22;27185;52.040;4.490;2022-10-16T07:48:05;15.30;99.90
41447;DHT22;27185;52.040;4.490;2022-10-16T07:50:51;15.30;99.90
41447;DHT22;27185;52.040;4.490;2022-10-16T07:53:36;15.40;99.90
41447;DHT22;27185;52.040;4.490;2022-10-16T07:56:22;15.40;99.90
41447;DHT22;27185;52.040;4.490;2022-10-16T07:59:08;15.50;99.90
41447;DHT22;27185;52.040;4.490;2022-10-16T08:01:53;15.50;99.90
41447;DHT22;27185;52.040;4.490;2022-10-16T08:04:39;15.50;99.90
41447;DHT22;27185;52.040;4.490;2022-10-16T08:07:24;15.60;99.90
41447;DHT22;27185;52.040;4.490;2022-10-16T08:10:16;15.60;99.90
41447;DHT22;27185;52.040;4.490;2022-10-16T08:13:02;15.70;99.90
41447;DHT22;27185;52.040;4.490;2022-10-16T08:15:48;15.80;99.90
41447;DHT22;27185;52.040;4.490;2022-10-16T08:18:38;15.80;99.90
41447;DHT22;27185;52.040;4.490;2022-10-16T08:21:24;15.90;99.90
41447;DHT22;27185;52.040;4.490;2022-10-16T08:24:10;15.90;99.90
41447;DHT22;27185;52.040;4.490;2022-10-16T08:26:55;15.90;99.90
41447;DHT22;27185;52.040;4.490;2022-10-16T08:29:41;16.00;99.90
41447;DHT22;27185;52.040;4.490;2022-10-16T08:32:26;16.00;99.90
41447;DHT22;27185;52.040;4.490;2022-10-16T08:35:13;16.10;99.90
41447;DHT22;27185;52.040;4.490;2022-10-16T08:37:59;16.10;99.90
41447;DHT22;27185;52.040;4.490;2022-10-16T08:40:45;16.10;99.90
41447;DHT22;27185;52.040;4.490;2022-10-16T08:49:43;16.30;99.90
41447;DHT22;27185;52.040;4.490;2022-10-16T08:52:35;16.30;99.90
41447;DHT22;27185;52.040;4.490;2022-10-16T08:55:43;16.40;99.90
41447;DHT22;27185;52.040;4.490;2022-10-16T08:58:30;16.40;99.90
41447;DHT22;27185;52.040;4.490;2022-10-16T09:01:18;16.40;99.90
41447;DHT22;27185;52.040;4.490;2022-10-16T09:07:53;16.60;99.90
41447;DHT22;27185;52.040;4.490;2022-10-16T09:13:27;16.70;99.90
41447;DHT22;27185;52.040;4.490;2022-10-16T09:16:19;16.70;99.90
41447;DHT22;27185;52.040;4.490;2022-10-16T09:22:16;17.00;99.90
41447;DHT22;27185;52.040;4.490;2022-10-16T09:25:11;17.10;99.90
41447;DHT22;27185;52.040;4.490;2022-10-16T09:27:57;17.10;99.90
41447;DHT22;27185;52.040;4.490;2022-10-16T09:30:44;17.20;99.90
41447;DHT22;27185;52.040;4.490;2022-10-16T09:33:35;17.30;99.90
41447;DHT22;27185;52.040;4.490;2022-10-16T09:36:23;17.30;99.90
41447;DHT22;27185;52.040;4.490;2022-10-16T09:39:11;17.40;99.90
41447;DHT22;27185;52.040;4.490;2022-10-16T09:41:57;17.40;99.90
41447;DHT22;27185;52.040;4.490;2022-10-16T09:44:47;17.40;99.90
41447;DHT22;27185;52.040;4.490;2022-10-16T09:47:43;17.40;99.90
41447;DHT22;27185;52.040;4.490;2022-10-16T09:50:29;17.50;99.90
41447;DHT22;27185;52.040;4.490;2022-10-16T09:53:15;17.50;99.90
41447;DHT22;27185;52.040;4.490;2022-10-16T09:56:02;17.60;99.90
41447;DHT22;27185;52.040;4.490;2022-10-16T09:58:53;17.60;99.90
41447;DHT22;27185;52.040;4.490;2022-10-16T10:01:41;17.70;99.90
41447;DHT22;27185;52.040;4.490;2022-10-16T10:04:36;17.80;99.90
41447;DHT22;27185;52.040;4.490;2022-10-16T10:07:28;17.90;99.90
41447;DHT22;27185;52.040;4.490;2022-10-16T10:10:27;18.00;99.90
41447;DHT22;27185;52.040;4.490;2022-10-16T10:13:20;18.10;99.90
41447;DHT22;27185;52.040;4.490;2022-10-16T10:16:07;18.20;99.90
41447;DHT22;27185;52.040;4.490;2022-10-16T10:19:00;18.20;99.70
41447;DHT22;27185;52.040;4.490;2022-10-16T10:21:45;18.40;99.60
41447;DHT22;27185;52.040;4.490;2022-10-16T10:24:31;18.50;99.90
41447;DHT22;27185;52.040;4.490;2022-10-16T10:27:18;18.60;99.90
41447;DHT22;27185;52.040;4.490;2022-10-16T10:33:35;18.70;98.70
41447;DHT22;27185;52.040;4.490;2022-10-16T10:39:30;18.80;99.50
41447;DHT22;27185;52.040;4.490;2022-10-16T10:42:35;18.80;97.30
41447;DHT22;27185;52.040;4.490;2022-10-16T10:45:47;18.70;95.80
41447;DHT22;27185;52.040;4.490;2022-10-16T10:51:44;18.70;98.60
41447;DHT22;27185;52.040;4.490;2022-10-16T10:58:42;18.60;94.30
41447;DHT22;27185;52.040;4.490;2022-10-16T11:01:37;18.50;94.90
41447;DHT22;27185;52.040;4.490;2022-10-16T11:07:38;18.40;95.90
41447;DHT22;27185;52.040;4.490;2022-10-16T11:10:29;18.30;94.50
41447;DHT22;27185;52.040;4.490;2022-10-16T11:16:26;18.30;94.00
41447;DHT22;27185;52.040;4.490;2022-10-16T11:22:11;18.20;94.30
41447;DHT22;27185;52.040;4.490;2022-10-16T11:28:22;18.20;94.30
41447;DHT22;27185;52.040;4.490;2022-10-16T11:31:23;18.20;92.30
41447;DHT22;27185;52.040;4.490;2022-10-16T11:37:32;18.20;92.00
41447;DHT22;27185;52.040;4.490;2022-10-16T11:40:37;18.40;91.70
41447;DHT22;27185;52.040;4.490;2022-10-16T11:43:38;18.40;89.80
41447;DHT22;27185;52.040;4.490;2022-10-16T11:46:27;18.50;91.80
41447;DHT22;27185;52.040;4.490;2022-10-16T11:49:16;18.60;91.80
41447;DHT22;27185;52.040;4.490;2022-10-16T11:52:25;18.80;92.20
41447;DHT22;27185;52.040;4.490;2022-10-16T11:55:32;18.90;90.30
41447;DHT22;27185;52.040;4.490;2022-10-16T11:58:36;19.00;92.40
41447;DHT22;27185;52.040;4.490;2022-10-16T12:01:46;19.20;90.40
41447;DHT22;27185;52.040;4.490;2022-10-16T12:04:34;19.30;91.20
41447;DHT22;27185;52.040;4.490;2022-10-16T12:07:30;19.40;90.40
41447;DHT22;27185;52.040;4.490;2022-10-16T12:10:26;19.60;92.20
41447;DHT22;27185;52.040;4.490;2022-10-16T12:13:39;20.00;90.90
41447;DHT22;27185;52.040;4.490;2022-10-16T12:16:24;20.30;88.70
41447;DHT22;27185;52.040;4.490;2022-10-16T12:19:15;20.60;90.90
41447;DHT22;27185;52.040;4.490;2022-10-16T12:22:02;21.00;89.20
41447;DHT22;27185;52.040;4.490;2022-10-16T12:24:52;21.20;89.80
41447;DHT22;27185;52.040;4.490;2022-10-16T12:27:38;21.40;89.70
41447;DHT22;27185;52.040;4.490;2022-10-16T12:30:25;21.50;88.00
41447;DHT22;27185;52.040;4.490;2022-10-16T12:36:14;21.60;81.90
41447;DHT22;27185;52.040;4.490;2022-10-16T12:39:01;21.50;84.50
41447;DHT22;27185;52.040;4.490;2022-10-16T12:41:47;21.40;87.70
41447;DHT22;27185;52.040;4.490;2022-10-16T12:44:35;21.40;88.50
41447;DHT22;27185;52.040;4.490;2022-10-16T12:47:37;21.30;88.80
41447;DHT22;27185;52.040;4.490;2022-10-16T12:50:36;21.30;85.70
41447;DHT22;27185;52.040;4.490;2022-10-16T12:53:24;21.20;88.10
41447;DHT22;27185;52.040;4.490;2022-10-16T12:56:32;21.30;90.20
41447;DHT22;27185;52.040;4.490;2022-10-16T12:59:33;21.30;84.10
41447;DHT22;27185;52.040;4.490;2022-10-16T13:05:54;21.30;85.30
41447;DHT22;27185;52.040;4.490;2022-10-16T13:21:23;20.80;84.90
41447;DHT22;27185;52.040;4.490;2022-10-16T13:27:45;20.60;84.10
41447;DHT22;27185;52.040;4.490;2022-10-16T13:30:50;20.50;86.70
41447;DHT22;27185;52.040;4.490;2022-10-16T13:33:41;20.40;84.60
41447;DHT22;27185;52.040;4.490;2022-10-16T13:36:30;20.30;87.60
41447;DHT22;27185;52.040;4.490;2022-10-16T13:39:25;20.20;88.50
41447;DHT22;27185;52.040;4.490;2022-10-16T13:42:16;20.20;88.70
41447;DHT22;27185;52.040;4.490;2022-10-16T13:45:04;20.20;88.90
41447;DHT22;27185;52.040;4.490;2022-10-16T13:47:50;20.20;89.50
41447;DHT22;27185;52.040;4.490;2022-10-16T13:50:35;20.20;89.70
41447;DHT22;27185;52.040;4.490;2022-10-16T13:53:21;20.10;90.10
41447;DHT22;27185;52.040;4.490;2022-10-16T13:56:16;20.10;90.20
41447;DHT22;27185;52.040;4.490;2022-10-16T13:59:04;20.10;89.90
41447;DHT22;27185;52.040;4.490;2022-10-16T14:01:51;20.10;90.40
41447;DHT22;27185;52.040;4.490;2022-10-16T14:04:39;20.20;87.90
41447;DHT22;27185;52.040;4.490;2022-10-16T14:07:27;20.20;91.20
41447;DHT22;27185;52.040;4.490;2022-10-16T14:10:29;20.20;91.00
41447;DHT22;27185;52.040;4.490;2022-10-16T14:13:26;20.20;90.50
41447;DHT22;27185;52.040;4.490;2022-10-16T14:16:29;20.20;90.30
41447;DHT22;27185;52.040;4.490;2022-10-16T14:19:20;20.20;90.40
41447;DHT22;27185;52.040;4.490;2022-10-16T14:22:32;20.20;90.90
41447;DHT22;27185;52.040;4.490;2022-10-16T14:28:17;20.10;91.70
41447;DHT22;27185;52.040;4.490;2022-10-16T14:31:25;20.10;91.00
41447;DHT22;27185;52.040;4.490;2022-10-16T14:37:25;20.00;90.60
41447;DHT22;27185;52.040;4.490;2022-10-16T14:40:14;20.00;92.20
41447;DHT22;27185;52.040;4.490;2022-10-16T14:43:01;20.00;92.60
41447;DHT22;27185;52.040;4.490;2022-10-16T14:45:53;20.00;93.00
41447;DHT22;27185;52.040;4.490;2022-10-16T14:48:41;20.00;92.90
41447;DHT22;27185;52.040;4.490;2022-10-16T14:51:27;20.00;93.40
41447;DHT22;27185;52.040;4.490;2022-10-16T14:54:17;20.10;93.60
41447;DHT22;27185;52.040;4.490;2022-10-16T14:57:04;20.10;93.60
41447;DHT22;27185;52.040;4.490;2022-10-16T14:59:50;20.10;93.60
41447;DHT22;27185;52.040;4.490;2022-10-16T15:02:38;20.10;93.60
41447;DHT22;27185;52.040;4.490;2022-10-16T15:05:26;20.10;93.90
41447;DHT22;27185;52.040;4.490;2022-10-16T15:08:12;20.00;93.60
41447;DHT22;27185;52.040;4.490;2022-10-16T15:10:58;20.00;93.30
41447;DHT22;27185;52.040;4.490;2022-10-16T15:13:44;20.00;93.40
41447;DHT22;27185;52.040;4.490;2022-10-16T15:16:30;19.90;93.50
41447;DHT22;27185;52.040;4.490;2022-10-16T15:19:16;19.90;93.70
41447;DHT22;27185;52.040;4.490;2022-10-16T15:22:02;19.80;93.80
41447;DHT22;27185;52.040;4.490;2022-10-16T15:24:47;19.80;94.00
41447;DHT22;27185;52.040;4.490;2022-10-16T15:27:33;19.80;94.10
41447;DHT22;27185;52.040;4.490;2022-10-16T15:30:25;19.70;94.10
41447;DHT22;27185;52.040;4.490;2022-10-16T15:33:14;19.70;94.30
41447;DHT22;27185;52.040;4.490;2022-10-16T15:36:01;19.70;94.30
41447;DHT22;27185;52.040;4.490;2022-10-16T15:38:47;19.70;94.40
41447;DHT22;27185;52.040;4.490;2022-10-16T15:41:32;19.70;94.60
41447;DHT22;27185;52.040;4.490;2022-10-16T15:44:18;19.60;94.60
41447;DHT22;27185;52.040;4.490;2022-10-16T15:47:03;19.50;94.60
41447;DHT22;27185;52.040;4.490;2022-10-16T15:49:49;19.50;94.70
41447;DHT22;27185;52.040;4.490;2022-10-16T15:52:34;19.40;94.80
41447;DHT22;27185;52.040;4.490;2022-10-16T15:55:20;19.40;94.90
41447;DHT22;27185;52.040;4.490;2022-10-16T15:58:06;19.30;95.00
41447;DHT22;27185;52.040;4.490;2022-10-16T16:00:58;19.30;95.10
41447;DHT22;27185;52.040;4.490;2022-10-16T16:03:46;19.20;94.80
41447;DHT22;27185;52.040;4.490;2022-10-16T16:06:31;19.10;95.30
41447;DHT22;27185;52.040;4.490;2022-10-16T16:09:17;19.10;95.30
41447;DHT22;27185;52.040;4.490;2022-10-16T16:12:02;19.00;95.40
41447;DHT22;27185;52.040;4.490;2022-10-16T16:14:48;18.90;95.50
41447;DHT22;27185;52.040;4.490;2022-10-16T16:17:35;18.90;95.60
41447;DHT22;27185;52.040;4.490;2022-10-16T16:20:22;18.80;95.80
41447;DHT22;27185;52.040;4.490;2022-10-16T16:23:08;18.80;95.90
41447;DHT22;27185;52.040;4.490;2022-10-16T16:26:04;18.70;96.00
41447;DHT22;27185;52.040;4.490;2022-10-16T16:28:50;18.70;95.80
41447;DHT22;27185;52.040;4.490;2022-10-16T16:31:36;18.60;96.20
41447;DHT22;27185;52.040;4.490;2022-10-16T16:34:22;18.50;96.30
41447;DHT22;27185;52.040;4.490;2022-10-16T16:37:07;18.40;96.40
41447;DHT22;27185;52.040;4.490;2022-10-16T16:39:53;18.40;96.50
41447;DHT22;27185;52.040;4.490;2022-10-16T16:42:41;18.30;96.60
41447;DHT22;27185;52.040;4.490;2022-10-16T16:45:26;18.20;96.80
41447;DHT22;27185;52.040;4.490;2022-10-16T16:48:12;18.20;96.90
41447;DHT22;27185;52.040;4.490;2022-10-16T16:51:09;18.10;97.00
41447;DHT22;27185;52.040;4.490;2022-10-16T16:53:55;18.10;97.10
41447;DHT22;27185;52.040;4.490;2022-10-16T16:56:41;18.10;96.80
41447;DHT22;27185;52.040;4.490;2022-10-16T16:59:28;18.00;97.30
41447;DHT22;27185;52.040;4.490;2022-10-16T17:02:15;17.90;97.50
41447;DHT22;27185;52.040;4.490;2022-10-16T17:05:00;17.90;97.60
41447;DHT22;27185;52.040;4.490;2022-10-16T17:07:46;17.80;97.70
41447;DHT22;27185;52.040;4.490;2022-10-16T17:10:32;17.80;97.80
41447;DHT22;27185;52.040;4.490;2022-10-16T17:13:18;17.70;97.90
41447;DHT22;27185;52.040;4.490;2022-10-16T17:16:05;17.70;98.00
41447;DHT22;27185;52.040;4.490;2022-10-16T17:18:50;17.60;98.10
41447;DHT22;27185;52.040;4.490;2022-10-16T17:21:38;17.60;98.50
41447;DHT22;27185;52.040;4.490;2022-10-16T17:24:23;17.60;98.30
41447;DHT22;27185;52.040;4.490;2022-10-16T17:27:09;17.60;98.40
41447;DHT22;27185;52.040;4.490;2022-10-16T17:29:56;17.60;98.50
41447;DHT22;27185;52.040;4.490;2022-10-16T17:32:42;17.60;98.50
41447;DHT22;27185;52.040;4.490;2022-10-16T17:35:27;17.60;98.60
41447;DHT22;27185;52.040;4.490;2022-10-16T17:38:14;17.50;98.90
41447;DHT22;27185;52.040;4.490;2022-10-16T17:41:17;17.50;98.70
41447;DHT22;27185;52.040;4.490;2022-10-16T17:44:04;17.50;98.70
41447;DHT22;27185;52.040;4.490;2022-10-16T17:46:51;17.40;98.80
41447;DHT22;27185;52.040;4.490;2022-10-16T17:49:37;17.50;99.00
41447;DHT22;27185;52.040;4.490;2022-10-16T17:52:23;17.50;99.00
41447;DHT22;27185;52.040;4.490;2022-10-16T17:55:09;17.40;99.00
41447;DHT22;27185;52.040;4.490;2022-10-16T17:57:54;17.40;99.10
41447;DHT22;27185;52.040;4.490;2022-10-16T18:00:40;17.40;99.20
41447;DHT22;27185;52.040;4.490;2022-10-16T18:03:26;17.40;99.20
41447;DHT22;27185;52.040;4.490;2022-10-16T18:06:12;17.40;99.20
41447;DHT22;27185;52.040;4.490;2022-10-16T18:08:59;17.40;99.20
41447;DHT22;27185;52.040;4.490;2022-10-16T18:11:45;17.40;99.30
41447;DHT22;27185;52.040;4.490;2022-10-16T18:14:31;17.40;99.30
41447;DHT22;27185;52.040;4.490;2022-10-16T18:17:17;17.40;99.30
41447;DHT22;27185;52.040;4.490;2022-10-16T18:20:05;17.40;99.30
41447;DHT22;27185;52.040;4.490;2022-10-16T18:22:51;17.40;99.30
41447;DHT22;27185;52.040;4.490;2022-10-16T18:25:36;17.40;99.40
41447;DHT22;27185;52.040;4.490;2022-10-16T18:28:22;17.40;99.40
41447;DHT22;27185;52.040;4.490;2022-10-16T18:31:12;17.40;99.50
41447;DHT22;27185;52.040;4.490;2022-10-16T18:33:57;17.40;99.50
41447;DHT22;27185;52.040;4.490;2022-10-16T18:36:43;17.40;99.60
41447;DHT22;27185;52.040;4.490;2022-10-16T18:39:29;17.40;99.70
41447;DHT22;27185;52.040;4.490;2022-10-16T18:42:15;17.30;99.70
41447;DHT22;27185;52.040;4.490;2022-10-16T18:45:01;17.30;99.80
41447;DHT22;27185;52.040;4.490;2022-10-16T18:47:47;17.30;99.90
41447;DHT22;27185;52.040;4.490;2022-10-16T18:50:32;17.30;99.90
41447;DHT22;27185;52.040;4.490;2022-10-16T18:53:18;17.20;99.90
41447;DHT22;27185;52.040;4.490;2022-10-16T18:56:04;17.20;99.90
41447;DHT22;27185;52.040;4.490;2022-10-16T18:58:51;17.20;99.90
41447;DHT22;27185;52.040;4.490;2022-10-16T19:01:43;17.20;99.90
41447;DHT22;27185;52.040;4.490;2022-10-16T19:04:29;17.20;99.90
41447;DHT22;27185;52.040;4.490;2022-10-16T19:07:14;17.20;99.90
41447;DHT22;27185;52.040;4.490;2022-10-16T19:10:01;17.20;99.90